CCN2 weather

Grand Manan Airport
Grand Manan, New Brunswick, Canada

Public forecast

Using degrees Celsius for public forecast. Weather courtesy of forecast.io.

Closest aviation weather report (METAR) to Grand Manan Airport

Closest report is Saint John Airport, 52.8 nm (97.8 km) NE. Retrieved 2019/10/23 04:00 UTC (40 minutes ago):

CYSJ 230400Z 12013G20KT 070V140 15SM FEW015 OVC210 09/07 A3016 RMK SF1CI7 SLP218

Closest aviation forecast (TAF) to Grand Manan Airport

Closest forecast is Saint John Airport, 52.8 nm (97.8 km) NE. Retrieved 2019-10-23 00:39 UTC (4 hours ago):

TAF CYSJ 222338Z 2300/2312 08009KT P6SM FEW020 BKN190 BECMG 2301/2303 11015KT BECMG 2307/2309 11015G25KT FM231100 12018G28KT P6SM -SHRA BKN015 BKN060 OVC180 RMK NXT FCST BY 230600Z